createdAt,value
2022-10-31T00:03:50.692Z,4.65
2022-10-31T00:09:12.702Z,4.60
2022-10-31T00:14:34.392Z,5.25
2022-10-31T00:19:56.126Z,4.95
2022-10-31T00:25:17.823Z,5.00
2022-10-31T00:30:39.535Z,4.38
2022-10-31T00:36:01.520Z,4.30
2022-10-31T00:41:23.186Z,4.22
2022-10-31T00:46:44.859Z,4.57
2022-10-31T00:52:06.553Z,4.63
2022-10-31T00:57:28.248Z,4.85
2022-10-31T01:02:50.122Z,4.05
2022-10-31T01:08:11.802Z,3.80
2022-10-31T01:13:34.284Z,4.93
2022-10-31T01:18:56.012Z,5.05
2022-10-31T01:24:17.708Z,4.60
2022-10-31T01:29:39.401Z,4.80
2022-10-31T01:35:01.121Z,4.75
2022-10-31T01:40:22.874Z,4.05
2022-10-31T01:45:50.884Z,4.45
2022-10-31T01:51:15.376Z,4.55
2022-10-31T01:56:42.212Z,4.03
2022-10-31T02:02:04.151Z,4.82
2022-10-31T02:07:38.303Z,4.85
2022-10-31T02:13:04.034Z,4.88
2022-10-31T02:18:28.852Z,5.07
2022-10-31T02:24:22.811Z,5.38
2022-10-31T02:30:25.998Z,5.45
2022-10-31T02:36:21.587Z,5.28
2022-10-31T02:42:35.716Z,5.10
2022-10-31T02:48:03.028Z,4.50
2022-10-31T02:53:25.139Z,4.32
2022-10-31T02:58:54.494Z,4.40
2022-10-31T03:04:58.156Z,5.00
2022-10-31T03:10:37.416Z,4.03
2022-10-31T03:16:09.291Z,5.00
2022-10-31T03:21:40.642Z,4.30
2022-10-31T03:27:04.510Z,4.43
2022-10-31T03:32:28.837Z,3.75
2022-10-31T03:37:53.794Z,4.10
2022-10-31T03:43:20.533Z,4.68
2022-10-31T03:48:42.333Z,4.45
2022-10-31T03:54:14.296Z,4.13
2022-10-31T03:59:42.021Z,4.13
2022-10-31T04:05:05.064Z,4.35
2022-10-31T04:10:32.011Z,4.10
2022-10-31T04:15:56.851Z,4.63
2022-10-31T04:21:18.704Z,3.78
2022-10-31T04:26:40.531Z,4.28
2022-10-31T04:32:02.285Z,4.38
2022-10-31T04:37:24.003Z,4.53
2022-10-31T04:42:45.746Z,4.35
2022-10-31T04:48:07.477Z,4.53
2022-10-31T04:53:29.712Z,4.82
2022-10-31T04:58:51.407Z,4.88
2022-10-31T05:04:13.174Z,4.65
2022-10-31T05:09:34.891Z,5.20
2022-10-31T05:14:56.631Z,5.72
2022-10-31T05:20:20.003Z,5.25
2022-10-31T05:25:41.893Z,4.70
2022-10-31T05:31:03.838Z,5.15
2022-10-31T05:36:25.579Z,5.15
2022-10-31T05:41:47.306Z,4.82
2022-10-31T05:47:09.090Z,4.53
2022-10-31T05:52:30.827Z,4.60
2022-10-31T05:57:53.648Z,4.35
2022-10-31T06:03:15.404Z,4.60
2022-10-31T06:08:37.532Z,4.97
2022-10-31T06:13:59.248Z,5.10
2022-10-31T06:19:20.969Z,4.68
2022-10-31T06:24:42.682Z,4.70
2022-10-31T06:30:04.919Z,4.90
2022-10-31T06:35:26.717Z,5.53
2022-10-31T06:40:48.467Z,5.68
2022-10-31T06:46:10.172Z,5.53
2022-10-31T06:51:31.890Z,5.88
2022-10-31T06:56:53.660Z,6.28
2022-10-31T07:02:15.527Z,5.63
2022-10-31T07:07:37.414Z,5.97
2022-10-31T07:13:01.391Z,6.85
2022-10-31T07:18:23.496Z,7.18
2022-10-31T07:23:48.516Z,7.35
2022-10-31T07:29:10.233Z,6.30
2022-10-31T07:34:32.002Z,6.97
2022-10-31T07:39:53.720Z,7.13
2022-10-31T07:45:17.925Z,6.88
2022-10-31T07:50:40.193Z,6.75
2022-10-31T07:56:01.907Z,6.38
2022-10-31T08:01:23.667Z,6.65
2022-10-31T08:06:46.483Z,6.32
2022-10-31T08:12:08.224Z,6.75
2022-10-31T08:17:30.635Z,6.57
2022-10-31T08:23:02.986Z,7.25
2022-10-31T08:28:24.788Z,7.63
2022-10-31T08:33:46.644Z,5.88
2022-10-31T08:39:08.491Z,6.05
2022-10-31T08:44:30.249Z,6.65
2022-10-31T08:49:52.082Z,5.72
2022-10-31T08:55:14.110Z,5.93
2022-10-31T09:00:36.512Z,6.38
2022-10-31T09:06:00.446Z,6.75
2022-10-31T09:11:22.257Z,6.15
2022-10-31T09:16:43.979Z,6.45
2022-10-31T09:22:05.679Z,6.25
2022-10-31T09:27:27.919Z,6.72
2022-10-31T09:32:56.199Z,7.20
2022-10-31T09:38:21.242Z,6.20
2022-10-31T09:44:20.633Z,6.38
2022-10-31T09:49:52.230Z,6.75
2022-10-31T09:55:19.012Z,6.35
2022-10-31T10:00:40.782Z,5.82
2022-10-31T10:06:24.298Z,6.57
2022-10-31T10:11:51.914Z,6.40
2022-10-31T10:17:35.230Z,7.32
2022-10-31T10:23:24.658Z,6.72
2022-10-31T10:28:56.718Z,6.32
2022-10-31T10:34:30.270Z,5.78
2022-10-31T10:39:57.735Z,6.55
2022-10-31T10:45:39.680Z,6.28
2022-10-31T10:51:02.496Z,6.00
2022-10-31T10:56:38.648Z,7.10
2022-10-31T11:02:01.131Z,7.25
2022-10-31T11:07:23.039Z,6.88
2022-10-31T11:13:03.051Z,6.60
2022-10-31T11:18:31.580Z,7.03
2022-10-31T11:24:11.636Z,7.32
2022-10-31T11:29:33.381Z,7.07
2022-10-31T11:35:01.386Z,8.05
2022-10-31T11:40:26.935Z,6.90
2022-10-31T11:45:48.838Z,6.90
2022-10-31T11:51:10.669Z,7.97
2022-10-31T11:56:41.054Z,7.05
2022-10-31T12:02:03.224Z,10.23
2022-10-31T12:07:25.407Z,7.78
2022-10-31T12:13:08.353Z,7.90
2022-10-31T12:18:39.194Z,8.20
2022-10-31T12:24:35.080Z,7.75
2022-10-31T12:30:15.588Z,8.55
2022-10-31T12:36:21.858Z,7.20
2022-10-31T12:42:10.925Z,6.60
2022-10-31T12:47:44.545Z,7.65
2022-10-31T12:53:48.407Z,7.53
2022-10-31T12:59:22.743Z,7.72
2022-10-31T13:04:58.154Z,8.23
2022-10-31T13:10:30.624Z,7.45
2022-10-31T13:15:58.236Z,9.30
2022-10-31T13:21:26.082Z,8.27
2022-10-31T13:26:53.301Z,8.27
2022-10-31T13:32:15.221Z,8.48
2022-10-31T13:37:45.412Z,8.48
2022-10-31T13:43:27.361Z,8.02
2022-10-31T13:48:49.143Z,7.57
2022-10-31T13:54:32.289Z,7.32
2022-10-31T13:59:59.146Z,7.80
2022-10-31T14:05:28.648Z,7.85
2022-10-31T14:10:56.862Z,7.32
2022-10-31T14:16:26.086Z,7.68
2022-10-31T14:21:49.221Z,8.50
2022-10-31T14:27:19.970Z,8.13
2022-10-31T14:32:44.037Z,8.48
2022-10-31T14:38:50.751Z,7.90
2022-10-31T14:44:18.515Z,8.20
2022-10-31T14:50:02.060Z,8.55
2022-10-31T14:55:25.538Z,8.98
2022-10-31T15:00:47.417Z,11.13
2022-10-31T15:06:14.657Z,9.52
2022-10-31T15:11:39.116Z,9.90
2022-10-31T15:17:05.183Z,9.63
2022-10-31T15:22:29.632Z,9.50
2022-10-31T15:27:53.076Z,9.18
2022-10-31T15:33:23.575Z,12.48
2022-10-31T15:38:45.681Z,10.55
2022-10-31T15:44:20.401Z,10.15
2022-10-31T15:49:49.917Z,9.48
2022-10-31T15:55:11.583Z,9.18
2022-10-31T16:00:35.849Z,11.38
2022-10-31T16:06:04.800Z,10.70
2022-10-31T16:11:39.963Z,10.27
2022-10-31T16:17:02.482Z,8.88
2022-10-31T16:22:38.781Z,8.90
2022-10-31T16:28:05.574Z,9.88
2022-10-31T16:33:37.091Z,9.48
2022-10-31T16:38:59.415Z,9.30
2022-10-31T16:44:26.468Z,9.68
2022-10-31T16:49:50.651Z,9.45
2022-10-31T16:55:16.582Z,10.80
2022-10-31T17:00:39.167Z,10.48
2022-10-31T17:06:00.902Z,10.85
2022-10-31T17:11:26.050Z,9.70
2022-10-31T17:16:47.870Z,10.57
2022-10-31T17:22:13.184Z,10.10
2022-10-31T17:27:34.928Z,10.63
2022-10-31T17:32:56.679Z,10.07
2022-10-31T17:38:18.412Z,11.20
2022-10-31T17:43:40.211Z,11.23
2022-10-31T17:49:02.019Z,12.05
2022-10-31T17:54:23.774Z,10.70
2022-10-31T17:59:45.523Z,11.10
2022-10-31T18:05:07.725Z,11.20
2022-10-31T18:10:29.468Z,11.52
2022-10-31T18:15:51.291Z,11.60
2022-10-31T18:21:13.084Z,11.10
2022-10-31T18:26:34.951Z,10.88
2022-10-31T18:31:56.714Z,12.10
2022-10-31T18:37:18.453Z,11.35
2022-10-31T18:42:40.212Z,11.35
2022-10-31T18:48:02.239Z,11.32
2022-10-31T18:53:24.655Z,11.80
2022-10-31T18:58:46.553Z,11.00
2022-10-31T19:04:10.591Z,10.23
2022-10-31T19:09:35.573Z,9.90
2022-10-31T19:14:57.310Z,11.55
2022-10-31T19:20:19.013Z,10.90
2022-10-31T19:25:40.916Z,10.05
2022-10-31T19:31:03.257Z,11.82
2022-10-31T19:36:25.044Z,10.45
2022-10-31T19:41:46.824Z,11.35
2022-10-31T19:47:08.522Z,11.23
2022-10-31T19:52:33.726Z,11.07
2022-10-31T19:58:01.815Z,9.68
2022-10-31T20:03:24.253Z,9.63
2022-10-31T20:08:46.070Z,8.25
2022-10-31T20:14:10.183Z,8.52
2022-10-31T20:19:32.027Z,9.57
2022-10-31T20:24:56.791Z,7.53
2022-10-31T20:30:18.626Z,7.65
2022-10-31T20:35:41.477Z,7.57
2022-10-31T20:41:05.180Z,7.38
2022-10-31T20:46:27.642Z,7.00
2022-10-31T20:51:49.448Z,7.75
2022-10-31T20:57:11.209Z,12.90
2022-10-31T21:02:33.980Z,8.38
2022-10-31T21:07:55.931Z,7.80
2022-10-31T21:13:18.267Z,8.18
2022-10-31T21:18:42.132Z,8.40
2022-10-31T21:24:12.218Z,8.32
2022-10-31T21:29:34.057Z,11.55
2022-10-31T21:34:55.830Z,14.98
2022-10-31T21:40:17.960Z,10.00
2022-10-31T21:45:39.718Z,10.32
2022-10-31T21:51:06.013Z,9.93
2022-10-31T21:56:28.264Z,11.85
2022-10-31T22:01:50.592Z,12.23
2022-10-31T22:07:12.475Z,11.80
2022-10-31T22:12:34.217Z,11.20
2022-10-31T22:17:55.981Z,11.13
2022-10-31T22:23:17.775Z,11.23
2022-10-31T22:28:40.600Z,11.75
2022-10-31T22:34:02.375Z,10.50
2022-10-31T22:39:24.111Z,11.70
2022-10-31T22:44:45.846Z,11.43
2022-10-31T22:50:07.921Z,12.05
2022-10-31T22:55:29.712Z,10.88
2022-10-31T23:00:51.544Z,10.07
2022-10-31T23:06:16.722Z,10.75
2022-10-31T23:11:39.901Z,10.65
2022-10-31T23:17:01.743Z,10.52
2022-10-31T23:22:23.469Z,14.20
2022-10-31T23:27:45.218Z,11.63
2022-10-31T23:33:07.548Z,12.93
2022-10-31T23:38:29.288Z,10.93
2022-10-31T23:43:51.010Z,9.43
2022-10-31T23:49:12.809Z,9.65
2022-10-31T23:54:34.824Z,8.85
2022-10-31T23:59:56.585Z,8.05
